createdAt,value
2024-02-19T00:00:39.933Z,76.46
2024-02-19T00:04:00.747Z,76.54
2024-02-19T00:07:04.224Z,76.64
2024-02-19T00:10:09.415Z,76.49
2024-02-19T00:13:34.879Z,76.63
2024-02-19T00:20:17.963Z,76.60
2024-02-19T00:27:09.898Z,76.75
2024-02-19T00:30:24.070Z,76.69
2024-02-19T00:33:26.726Z,76.27
2024-02-19T00:36:35.719Z,76.84
2024-02-19T00:39:42.459Z,76.41
2024-02-19T00:42:45.108Z,76.39
2024-02-19T00:45:49.176Z,76.52
2024-02-19T00:48:52.150Z,76.40
2024-02-19T00:51:58.857Z,76.59
2024-02-19T00:55:01.485Z,76.65
2024-02-19T00:58:05.785Z,76.44
2024-02-19T01:01:41.915Z,76.77
2024-02-19T01:04:46.284Z,76.86
2024-02-19T01:14:44.870Z,76.64
2024-02-19T01:18:08.733Z,76.65
2024-02-19T01:21:12.976Z,76.07
2024-02-19T01:24:19.001Z,76.17
2024-02-19T01:27:35.904Z,76.24
2024-02-19T01:30:45.858Z,76.80
2024-02-19T01:33:52.856Z,76.28
2024-02-19T01:40:48.790Z,76.86
2024-02-19T01:44:05.591Z,76.37
2024-02-19T01:47:19.792Z,75.97
2024-02-19T01:50:40.827Z,76.46
2024-02-19T01:57:03.683Z,75.93
2024-02-19T02:00:11.696Z,76.58
2024-02-19T02:03:26.681Z,75.98
2024-02-19T02:06:31.209Z,76.30
2024-02-19T02:09:39.951Z,76.33
2024-02-19T02:12:42.778Z,76.20
2024-02-19T02:15:54.757Z,76.49
2024-02-19T02:19:07.390Z,76.70
2024-02-19T02:29:23.462Z,76.52
2024-02-19T02:32:35.532Z,76.20
2024-02-19T02:36:18.418Z,76.53
2024-02-19T02:42:57.168Z,76.49
2024-02-19T02:46:15.968Z,76.00
2024-02-19T02:49:18.694Z,76.28
2024-02-19T02:52:22.124Z,75.99
2024-02-19T02:55:38.638Z,76.47
2024-02-19T02:58:48.579Z,76.01
2024-02-19T03:01:55.697Z,76.55
2024-02-19T03:05:15.145Z,75.87
2024-02-19T03:08:26.488Z,76.16
2024-02-19T03:11:36.491Z,76.45
2024-02-19T03:14:46.664Z,76.48
2024-02-19T03:18:07.576Z,76.16
2024-02-19T03:21:20.393Z,76.58
2024-02-19T03:24:29.590Z,76.33
2024-02-19T03:28:00.876Z,75.85
2024-02-19T03:31:08.668Z,76.23
2024-02-19T03:34:23.655Z,76.74
2024-02-19T03:37:27.349Z,76.46
2024-02-19T03:40:49.121Z,76.73
2024-02-19T03:44:21.847Z,76.58
2024-02-19T03:47:25.193Z,76.29
2024-02-19T03:57:24.690Z,76.22
2024-02-19T04:00:27.989Z,76.62
2024-02-19T04:03:35.615Z,76.17
2024-02-19T04:06:41.958Z,76.12
2024-02-19T04:09:48.311Z,76.34
2024-02-19T04:13:29.793Z,76.52
2024-02-19T04:16:45.580Z,76.08
2024-02-19T04:20:02.368Z,76.58
2024-02-19T04:23:06.372Z,75.90
2024-02-19T04:26:10.372Z,75.92
2024-02-19T04:29:13.518Z,76.16
2024-02-19T04:32:16.671Z,76.34
2024-02-19T04:35:22.657Z,76.17
2024-02-19T04:38:30.752Z,75.90
2024-02-19T04:55:29.109Z,75.61
2024-02-19T04:58:32.262Z,75.63
2024-02-19T05:01:35.308Z,75.72
2024-02-19T05:04:38.341Z,75.86
2024-02-19T05:07:41.307Z,75.84
2024-02-19T05:10:45.861Z,75.68
2024-02-19T05:13:53.339Z,75.79
2024-02-19T05:16:57.369Z,75.52
2024-02-19T05:20:00.009Z,75.80
2024-02-19T05:23:03.308Z,75.68
2024-02-19T05:26:09.590Z,75.85
2024-02-19T05:29:13.530Z,75.57
2024-02-19T05:32:20.051Z,75.33
2024-02-19T05:35:28.399Z,75.25
2024-02-19T05:38:31.635Z,75.80
2024-02-19T05:41:37.687Z,75.55
2024-02-19T05:44:40.308Z,75.39
2024-02-19T05:47:43.665Z,75.62
2024-02-19T05:50:46.389Z,75.94
2024-02-19T05:53:50.328Z,75.60
2024-02-19T05:56:54.810Z,75.55
2024-02-19T06:00:01.043Z,75.43
2024-02-19T06:03:13.234Z,75.71
2024-02-19T06:06:16.534Z,76.13
2024-02-19T06:09:24.554Z,75.58
2024-02-19T06:12:30.317Z,76.15
2024-02-19T06:15:32.972Z,75.54
2024-02-19T06:18:36.125Z,75.41
2024-02-19T06:21:43.323Z,76.08
2024-02-19T06:24:48.458Z,75.86
2024-02-19T06:27:56.532Z,75.60
2024-02-19T06:31:04.544Z,75.91
2024-02-19T06:49:23.799Z,75.83
2024-02-19T06:52:33.164Z,75.88
2024-02-19T06:55:36.793Z,75.90
2024-02-19T06:58:52.995Z,75.92
2024-02-19T07:01:56.322Z,75.63
2024-02-19T07:05:02.236Z,75.70
2024-02-19T07:08:06.140Z,75.86
2024-02-19T07:11:14.806Z,75.41
2024-02-19T07:14:17.672Z,75.68
2024-02-19T07:17:20.365Z,75.85
2024-02-19T07:20:24.371Z,75.97
2024-02-19T07:23:26.982Z,75.53
2024-02-19T07:26:29.603Z,75.52
2024-02-19T07:29:32.248Z,75.61
2024-02-19T07:32:35.160Z,75.57
2024-02-19T07:35:39.434Z,75.32
2024-02-19T07:38:42.439Z,75.41
2024-02-19T07:41:45.028Z,75.10
2024-02-19T07:44:47.778Z,75.63
2024-02-19T07:47:51.848Z,75.49
2024-02-19T07:50:56.009Z,75.23
2024-02-19T07:53:58.781Z,74.93
2024-02-19T07:57:01.343Z,75.33
2024-02-19T08:00:05.075Z,75.58
2024-02-19T08:03:08.584Z,75.20
2024-02-19T08:06:12.727Z,75.22
2024-02-19T08:09:15.431Z,75.66
2024-02-19T08:12:18.171Z,75.69
2024-02-19T08:15:21.132Z,75.93
2024-02-19T08:18:24.727Z,75.82
2024-02-19T08:21:29.005Z,75.52
2024-02-19T08:24:31.719Z,75.43
2024-02-19T08:27:34.461Z,75.51
2024-02-19T08:30:37.258Z,75.42
2024-02-19T08:33:40.127Z,75.71
2024-02-19T08:36:44.429Z,75.81
2024-02-19T08:39:48.876Z,75.85
2024-02-19T08:42:56.353Z,75.64
2024-02-19T08:45:59.736Z,75.56
2024-02-19T08:49:05.834Z,75.19
2024-02-19T08:52:14.180Z,75.12
2024-02-19T08:55:17.422Z,75.21
2024-02-19T08:58:20.432Z,75.60
2024-02-19T09:01:23.416Z,75.33
2024-02-19T09:04:26.389Z,75.04
2024-02-19T09:07:31.379Z,75.35
2024-02-19T09:10:38.271Z,75.71
2024-02-19T09:13:42.663Z,75.77
2024-02-19T09:16:46.611Z,75.63
2024-02-19T09:19:50.896Z,75.27
2024-02-19T09:22:54.857Z,75.53
2024-02-19T09:25:58.589Z,75.69
2024-02-19T09:29:04.050Z,75.43
2024-02-19T09:32:18.961Z,75.72
2024-02-19T09:35:24.375Z,75.00
2024-02-19T09:38:28.436Z,75.16
2024-02-19T09:41:31.314Z,75.41
2024-02-19T09:44:37.206Z,75.29
2024-02-19T09:47:45.459Z,75.42
2024-02-19T09:51:01.655Z,75.27
2024-02-19T09:54:12.345Z,75.50
2024-02-19T09:57:16.874Z,75.27
2024-02-19T10:00:22.972Z,75.26
2024-02-19T10:03:28.446Z,75.55
2024-02-19T10:06:36.643Z,75.72
2024-02-19T10:09:41.192Z,75.57
2024-02-19T10:12:44.750Z,75.82
2024-02-19T10:15:52.019Z,75.80
2024-02-19T10:19:07.325Z,75.64
2024-02-19T10:22:12.673Z,75.90
2024-02-19T10:25:25.280Z,75.57
2024-02-19T10:28:36.803Z,75.69
2024-02-19T10:31:42.786Z,75.60
2024-02-19T10:34:57.425Z,75.55
2024-02-19T10:38:06.237Z,75.36
2024-02-19T10:41:17.680Z,75.72
2024-02-19T10:44:22.893Z,75.63
2024-02-19T10:47:26.921Z,75.75
2024-02-19T10:50:35.996Z,75.43
2024-02-19T10:53:43.666Z,75.42
2024-02-19T10:56:59.756Z,75.40
2024-02-19T11:00:12.983Z,75.47
2024-02-19T11:03:17.295Z,75.33
2024-02-19T11:06:34.422Z,75.41
2024-02-19T11:09:40.388Z,75.42
2024-02-19T11:12:44.524Z,75.34
2024-02-19T11:15:49.574Z,75.73
2024-02-19T11:19:02.847Z,75.51
2024-02-19T11:22:22.733Z,75.61
2024-02-19T11:25:25.375Z,75.37
2024-02-19T11:28:34.654Z,75.28
2024-02-19T11:31:48.989Z,75.26
2024-02-19T11:35:20.584Z,75.34
2024-02-19T11:38:25.472Z,75.39
2024-02-19T11:41:28.593Z,75.70
2024-02-19T11:44:34.345Z,75.10
2024-02-19T11:47:41.612Z,75.19
2024-02-19T11:50:47.271Z,75.47
2024-02-19T11:53:52.850Z,75.12
2024-02-19T11:56:58.723Z,75.69
2024-02-19T12:00:07.679Z,75.04
2024-02-19T12:03:12.342Z,75.37
2024-02-19T12:06:23.187Z,75.21
2024-02-19T12:09:26.216Z,75.46
2024-02-19T12:12:34.661Z,75.40
2024-02-19T12:15:39.191Z,75.36
2024-02-19T12:18:46.994Z,75.25
2024-02-19T12:21:51.471Z,75.82
2024-02-19T12:24:55.893Z,75.78
2024-02-19T12:27:59.338Z,75.41
2024-02-19T12:31:03.987Z,75.60
2024-02-19T12:34:07.689Z,75.16
2024-02-19T12:37:11.073Z,75.35
2024-02-19T12:40:15.437Z,75.42
2024-02-19T12:43:19.374Z,75.38
2024-02-19T12:46:33.746Z,75.62
2024-02-19T12:49:39.590Z,75.43
2024-02-19T12:52:46.224Z,75.11
2024-02-19T12:55:53.631Z,75.27
2024-02-19T12:58:56.756Z,75.36
2024-02-19T13:02:05.713Z,75.19
2024-02-19T13:05:21.730Z,75.62
2024-02-19T13:08:35.873Z,75.21
2024-02-19T13:12:07.039Z,75.58
2024-02-19T13:15:10.764Z,75.41
2024-02-19T13:18:16.466Z,75.33
2024-02-19T13:21:22.275Z,75.54
2024-02-19T13:31:27.379Z,75.24
2024-02-19T13:34:31.617Z,75.33
2024-02-19T13:37:48.300Z,75.07
2024-02-19T13:40:54.465Z,75.24
2024-02-19T13:44:10.455Z,75.33
2024-02-19T13:47:24.050Z,75.04
2024-02-19T13:50:45.352Z,75.35
2024-02-19T13:54:11.708Z,75.73
2024-02-19T13:57:18.393Z,75.45
2024-02-19T14:00:24.479Z,75.63
2024-02-19T14:06:47.907Z,75.57
2024-02-19T14:09:51.925Z,75.20
2024-02-19T14:12:54.905Z,75.50
2024-02-19T14:16:00.978Z,75.62
2024-02-19T14:19:04.346Z,75.60
2024-02-19T14:22:10.959Z,75.07
2024-02-19T14:25:14.083Z,75.21
2024-02-19T14:28:20.863Z,74.97
2024-02-19T14:31:26.574Z,75.11
2024-02-19T14:34:43.276Z,75.54
2024-02-19T14:37:51.027Z,75.48
2024-02-19T14:41:07.391Z,75.30
2024-02-19T14:44:10.820Z,75.55
2024-02-19T14:47:15.666Z,75.64
2024-02-19T14:50:18.742Z,75.54
2024-02-19T14:53:25.461Z,75.61
2024-02-19T14:56:38.678Z,75.61
2024-02-19T14:59:44.541Z,75.58
2024-02-19T15:02:47.564Z,75.40
2024-02-19T15:05:57.339Z,75.84
2024-02-19T15:13:07.184Z,75.24
2024-02-19T15:16:25.073Z,75.92
2024-02-19T15:19:37.068Z,75.45
2024-02-19T15:22:48.233Z,75.44
2024-02-19T15:25:53.035Z,75.33
2024-02-19T15:29:01.109Z,75.31
2024-02-19T15:32:17.152Z,75.59
2024-02-19T15:35:32.486Z,75.47
2024-02-19T15:38:51.709Z,75.47
2024-02-19T15:42:10.876Z,75.31
2024-02-19T15:48:37.869Z,75.15
2024-02-19T15:51:45.077Z,75.56
2024-02-19T15:54:52.634Z,75.71
2024-02-19T15:57:58.336Z,75.45
2024-02-19T16:01:06.022Z,75.63
2024-02-19T16:04:09.067Z,75.72
2024-02-19T16:10:49.783Z,75.89
2024-02-19T16:13:55.268Z,75.37
2024-02-19T16:16:58.447Z,75.34
2024-02-19T16:20:02.789Z,75.38
2024-02-19T16:23:07.797Z,75.70
2024-02-19T16:26:11.456Z,75.86
2024-02-19T16:29:16.689Z,75.33
2024-02-19T16:32:21.237Z,75.60
2024-02-19T16:35:26.402Z,75.50
2024-02-19T16:38:31.616Z,75.90
2024-02-19T16:41:35.730Z,75.60
2024-02-19T16:44:40.901Z,75.24
2024-02-19T16:47:43.783Z,75.86
2024-02-19T16:50:50.322Z,75.50
2024-02-19T16:53:55.326Z,75.74
2024-02-19T16:57:00.716Z,75.41
2024-02-19T17:00:08.322Z,75.28
2024-02-19T17:03:10.851Z,75.85
2024-02-19T17:06:14.648Z,75.95
2024-02-19T17:09:20.164Z,75.69
2024-02-19T17:12:24.410Z,75.60
2024-02-19T17:15:29.870Z,75.13
2024-02-19T17:18:34.407Z,75.88
2024-02-19T17:21:39.059Z,75.29
2024-02-19T17:24:43.342Z,75.52
2024-02-19T17:27:52.489Z,75.57
2024-02-19T17:31:01.669Z,75.45
2024-02-19T17:34:05.523Z,75.61
2024-02-19T17:37:09.148Z,76.04
2024-02-19T17:40:17.620Z,75.48
2024-02-19T17:43:20.155Z,75.93
2024-02-19T17:46:24.339Z,75.85
2024-02-19T17:49:27.782Z,75.65
2024-02-19T17:52:32.819Z,75.78
2024-02-19T17:55:35.738Z,75.92
2024-02-19T17:58:41.992Z,75.35
2024-02-19T18:01:48.932Z,75.69
2024-02-19T18:04:55.472Z,75.62
2024-02-19T18:07:58.588Z,75.64
2024-02-19T18:11:03.628Z,75.75
2024-02-19T18:14:09.637Z,75.94
2024-02-19T18:17:13.690Z,76.11
2024-02-19T18:20:16.728Z,76.07
2024-02-19T18:23:20.166Z,75.99
2024-02-19T18:26:25.258Z,75.95
2024-02-19T18:29:28.819Z,76.06
2024-02-19T18:32:35.883Z,76.00
2024-02-19T18:35:42.134Z,76.00
2024-02-19T18:38:49.222Z,75.60
2024-02-19T18:41:52.356Z,76.04
2024-02-19T18:44:56.209Z,75.71
2024-02-19T18:48:01.705Z,76.01
2024-02-19T18:51:07.176Z,76.10
2024-02-19T18:54:09.709Z,75.79
2024-02-19T18:57:16.011Z,75.90
2024-02-19T19:00:22.172Z,75.66
2024-02-19T19:03:31.926Z,76.14
2024-02-19T19:09:56.205Z,75.64
2024-02-19T19:12:59.810Z,75.93
2024-02-19T19:16:04.033Z,76.13
2024-02-19T19:19:08.923Z,75.96
2024-02-19T19:22:16.224Z,75.83
2024-02-19T19:25:19.881Z,75.90
2024-02-19T19:28:22.773Z,76.08
2024-02-19T19:31:27.981Z,75.82
2024-02-19T19:34:32.638Z,76.01
2024-02-19T19:37:51.843Z,75.70
2024-02-19T19:41:04.845Z,76.10
2024-02-19T19:44:08.201Z,76.07
2024-02-19T19:47:11.042Z,75.76
2024-02-19T19:50:16.629Z,76.10
2024-02-19T19:53:25.924Z,75.61
2024-02-19T19:56:28.843Z,76.00
2024-02-19T19:59:32.349Z,76.00
2024-02-19T20:02:40.127Z,75.79
2024-02-19T20:05:45.220Z,75.74
2024-02-19T20:08:49.126Z,75.72
2024-02-19T20:11:53.617Z,75.76
2024-02-19T20:14:59.181Z,75.26
2024-02-19T20:18:04.292Z,75.80
2024-02-19T20:21:09.280Z,75.55
2024-02-19T20:24:12.109Z,76.03
2024-02-19T20:27:15.675Z,75.73
2024-02-19T20:30:22.461Z,75.58
2024-02-19T20:33:30.097Z,75.70
2024-02-19T20:36:38.855Z,75.65
2024-02-19T20:39:42.956Z,75.88
2024-02-19T20:42:46.507Z,76.18
2024-02-19T20:45:50.149Z,75.88
2024-02-19T20:48:54.534Z,75.63
2024-02-19T20:52:02.812Z,75.66
2024-02-19T20:55:10.485Z,75.90
2024-02-19T20:58:14.212Z,75.71
2024-02-19T21:01:17.847Z,76.00
2024-02-19T21:04:21.173Z,76.06
2024-02-19T21:07:25.328Z,76.22
2024-02-19T21:10:28.726Z,76.21
2024-02-19T21:13:31.594Z,75.96
2024-02-19T21:16:35.499Z,76.16
2024-02-19T21:23:05.337Z,75.63
2024-02-19T21:26:17.071Z,75.79
2024-02-19T21:29:23.303Z,75.89
2024-02-19T21:32:27.109Z,75.74
2024-02-19T21:35:29.861Z,75.97
2024-02-19T21:38:43.159Z,75.74
2024-02-19T21:41:50.238Z,76.03
2024-02-19T21:44:53.047Z,75.76
2024-02-19T21:47:56.418Z,76.05
2024-02-19T21:50:59.668Z,76.14
2024-02-19T21:54:36.209Z,76.24
2024-02-19T21:57:54.789Z,76.02
2024-02-19T22:01:26.225Z,76.08
2024-02-19T22:04:32.194Z,76.34
2024-02-19T22:07:45.742Z,76.03
2024-02-19T22:11:11.515Z,75.63
2024-02-19T22:14:35.813Z,76.25
2024-02-19T22:17:38.397Z,75.65
2024-02-19T22:20:41.017Z,75.66
2024-02-19T22:24:03.178Z,75.81
2024-02-19T22:27:29.990Z,76.06
2024-02-19T22:34:19.663Z,75.65
2024-02-19T22:37:22.286Z,76.09
2024-02-19T22:40:25.188Z,76.00
2024-02-19T22:43:30.360Z,75.84
2024-02-19T22:46:33.215Z,76.36
2024-02-19T22:49:36.394Z,75.65
2024-02-19T22:52:43.789Z,76.23
2024-02-19T22:55:47.987Z,76.10
2024-02-19T22:59:00.928Z,76.19
2024-02-19T23:02:10.173Z,75.97
2024-02-19T23:05:14.497Z,75.54
2024-02-19T23:08:17.830Z,75.76
2024-02-19T23:11:25.802Z,75.80
2024-02-19T23:18:12.877Z,75.69
2024-02-19T23:21:28.542Z,75.95
2024-02-19T23:24:57.185Z,76.28
2024-02-19T23:31:54.818Z,76.15
2024-02-19T23:38:53.642Z,76.27
2024-02-19T23:42:19.495Z,76.12
2024-02-19T23:49:06.668Z,76.06
2024-02-19T23:52:24.703Z,75.90
2024-02-19T23:55:42.559Z,75.75
2024-02-19T23:58:48.372Z,76.01
